Bialystok, Poland
Current Conditions -  °F | °C
As of 1:00 PM on Friday 24 Oct 2014 (Local Time) from UMMG Reporting Station
Clear Clear  
Wind Chill: 24°   Ceiling: Unl
Heat Index: 32°   Visibility: 6mi
Dew Point: 14°   Wind: 9mph
Humidity: 47%   Direction: 100°E
Pressure: 30.5"   Gusts: NA
Location:  53.14°N, 23.16°E
Report Text: UMMG 241100Z 10004MPS CAVOK M00/M10 Q1033 R17/CLRD// NOSIG
Loading
Personal Weather Stations






























Interactive Weather Map
Tropical Storm Tracking
New forecast layout! Learn more

10-Day Weather Forecast

Advertisements
Track Severe Weather on mobile